Flag for Montenegro

Past Weather in 42°17'02"N, 18°52'09"E, Montenegro — Yesterday and Last 2 Weeks

Currently: 68 °F. Passing clouds. (Weather station: Podgorica Titograd, Montenegro). See more current weather

Past Weather in 42°17'02"N, 18°52'09"E — Graph

°F

42°17'02"N, 18°52'09"E Temperature Yesterday

Maximum temperature yesterday: 72 °F (at 3:00 pm)
Minimum temperature yesterday: 46 °F (at 7:00 am)
Average temperature yesterday: 59 °F

High & Low Weather Summary for the Past Weeks

 TemperatureHumidityPressure
High72 °F (Feb 28, 3:00 pm)100% (Feb 23, 6:00 am)30.42 "Hg (Feb 23, 6:00 am)
Low34 °F (Feb 17, 7:00 am)24% (Feb 18, 3:00 pm)29.74 "Hg (Feb 26, 5:30 am)
Average53 °F64%30.09 "Hg
* Reported Feb 14 11:00 am — Feb 29 11:30 am, 42°17'02"N, 18°52'09"E. Weather by CustomWeather, © 2024

Note: Actual official high and low records may vary slightly from our data, if they occured in-between our weather recording intervals... More about our weather records

42°17'02"N, 18°52'09"E Weather History for the Previous 24 Hours

Scroll right to see more
 ConditionsComfort  
Time TempWeatherWind HumidityBarometerVisibility
11:30 am
Thu, Feb 29
66 °FPassing clouds.6 mph49%29.95 "HgN/A
11:00 am64 °FPassing clouds.1 mph52%29.95 "HgN/A
10:30 am63 °FPassing clouds.3 mph59%29.95 "HgN/A
10:00 am61 °FPassing clouds.No wind63%29.95 "HgN/A
9:30 am59 °FPassing clouds.3 mph68%29.95 "HgN/A
9:00 am57 °FPassing clouds.2 mph77%29.95 "HgN/A
8:30 am55 °FScattered clouds.No wind82%29.95 "HgN/A
8:00 am55 °FScattered clouds.5 mph77%29.95 "HgN/A
7:30 am52 °FScattered clouds.5 mph88%29.95 "HgN/A
7:00 am52 °FScattered clouds.No wind82%29.95 "HgN/A
6:30 am54 °FScattered clouds.No wind77%29.95 "HgN/A
6:00 am54 °FPassing clouds.No wind77%29.95 "HgN/A
5:30 am54 °FPassing clouds.2 mph77%29.95 "HgN/A
5:00 am54 °FPassing clouds.No wind77%29.95 "HgN/A
4:30 am54 °FPassing clouds.1 mph77%29.98 "HgN/A
4:00 am55 °FPassing clouds.5 mph67%29.98 "HgN/A
3:30 am59 °FPassing clouds.5 mph55%29.98 "HgN/A
3:00 am57 °FPassing clouds.8 mph63%29.98 "HgN/A
2:30 am59 °FPassing clouds.6 mph59%29.98 "HgN/A
2:00 am55 °FPassing clouds.10 mph72%29.98 "HgN/A
1:30 am55 °FPassing clouds.3 mph72%30.01 "HgN/A
1:00 am55 °FPassing clouds.No wind72%30.01 "HgN/A
12:30 am55 °FPassing clouds.2 mph72%30.01 "HgN/A
12:00 am55 °FPassing clouds.8 mph72%30.01 "HgN/A
11:30 pm
Wed, Feb 28
54 °FPassing clouds.6 mph82%30.01 "HgN/A
11:00 pm54 °FPassing clouds.2 mph82%30.01 "HgN/A
10:30 pm55 °FPassing clouds.1 mph77%30.01 "HgN/A
10:00 pm55 °FPassing clouds.1 mph77%30.01 "HgN/A
9:30 pm55 °FClear.No wind77%30.01 "Hg10 mi
9:00 pm55 °FClear.No wind77%30.01 "Hg10 mi
8:30 pm57 °FClear.No wind72%29.98 "Hg10 mi
8:00 pm57 °FClear.No wind72%29.98 "Hg10 mi
7:30 pm59 °FClear.1 mph63%29.98 "Hg10 mi
7:00 pm59 °FClear.3 mph68%29.98 "Hg10 mi
6:30 pm61 °FClear.2 mph63%29.98 "Hg10 mi
6:00 pm63 °FClear.2 mph59%29.98 "Hg10 mi
5:30 pm64 °FClear.1 mph56%29.98 "Hg10 mi
5:00 pm68 °FSunny.3 mph43%29.98 "Hg10 mi
4:30 pm70 °FSunny.3 mph40%29.98 "Hg10 mi
4:00 pm70 °FPassing clouds.1 mph40%29.98 "HgN/A
3:30 pm70 °FPassing clouds.1 mph40%29.98 "HgN/A
3:00 pm72 °FPassing clouds.1 mph41%29.98 "HgN/A
2:30 pm70 °FPassing clouds.2 mph40%29.98 "HgN/A
2:00 pm70 °FPassing clouds.3 mph43%29.98 "HgN/A
1:30 pm70 °FPassing clouds.2 mph43%30.01 "HgN/A
1:00 pm70 °FPassing clouds.3 mph43%30.01 "HgN/A
12:30 pm68 °FScattered clouds.2 mph49%30.01 "HgN/A
12:00 pm66 °FScattered clouds.1 mph56%30.04 "HgN/A
Weather by CustomWeather, © 2024

See weather overview